Time;durP1;ratioP1;P1;durP2;ratioP2;P2;SDS_P1;SDS_P2;PMS_P1;PMS_P2;Temp;Humidity;BMP_temperature;BMP_pressure;BME280_temperature;BME280_humidity;BME280_pressure;Samples;Min_cycle;Max_cycle;Signal;HPM_P1;HPM_P2
2022/05/05 05:03:39;;;;;;;17.92;13.27;;;12.20;99.90;;;;;;5127424;23;20307;-77
2022/05/05 05:06:07;;;;;;;19.10;13.63;;;12.20;99.90;;;;;;4890689;29;20028;-78
2022/05/05 05:08:38;;;;;;;18.67;13.63;;;12.30;99.90;;;;;;4891320;29;20032;-79
2022/05/05 05:11:04;;;;;;;17.88;13.38;;;12.30;99.90;;;;;;4920035;29;20038;-78
2022/05/05 05:13:31;;;;;;;19.20;13.70;;;12.30;99.90;;;;;;4927051;29;20032;-76
2022/05/05 05:15:58;;;;;;;17.15;12.98;;;12.40;99.90;;;;;;4909754;29;20059;-78
2022/05/05 05:18:24;;;;;;;24.75;13.25;;;12.40;99.90;;;;;;4926462;29;20034;-77
2022/05/05 05:20:49;;;;;;;20.13;13.73;;;12.50;99.90;;;;;;4928138;29;20197;-78
2022/05/05 05:23:15;;;;;;;21.90;13.88;;;12.60;99.90;;;;;;4909397;29;20024;-78
2022/05/05 05:25:41;;;;;;;18.20;13.18;;;12.70;99.90;;;;;;4927102;29;20032;-78
2022/05/05 05:28:07;;;;;;;19.98;12.70;;;12.80;99.90;;;;;;4909391;29;20040;-78
2022/05/05 05:30:33;;;;;;;19.27;13.43;;;12.90;99.90;;;;;;4909285;29;20206;-77
2022/05/05 05:32:59;;;;;;;22.20;13.68;;;13.00;99.90;;;;;;4926294;29;20074;-77
2022/05/05 05:35:24;;;;;;;19.08;13.73;;;13.00;99.90;;;;;;4926551;29;20034;-77
2022/05/05 05:37:51;;;;;;;18.77;12.98;;;13.00;99.90;;;;;;4909117;29;20076;-77
2022/05/05 05:40:17;;;;;;;20.67;12.23;;;13.10;99.90;;;;;;4925988;29;20334;-77
2022/05/05 05:42:43;;;;;;;20.13;13.93;;;13.20;99.90;;;;;;4893815;29;20034;-77
2022/05/05 05:45:09;;;;;;;16.90;12.20;;;13.20;99.90;;;;;;4925064;29;20071;-77
2022/05/05 05:47:35;;;;;;;19.45;11.88;;;13.20;99.90;;;;;;4909340;29;20044;-77
2022/05/05 05:50:01;;;;;;;17.35;12.43;;;13.20;99.90;;;;;;4914150;29;20087;-77
2022/05/05 05:52:27;;;;;;;16.52;12.18;;;13.30;99.90;;;;;;4926277;29;20357;-77
2022/05/05 05:54:52;;;;;;;19.92;13.82;;;13.30;99.90;;;;;;4926015;29;20032;-77
2022/05/05 05:57:18;;;;;;;17.02;12.82;;;13.30;99.90;;;;;;4925469;29;20224;-77
2022/05/05 05:59:44;;;;;;;18.35;12.68;;;13.30;99.90;;;;;;4924848;29;20035;-77
2022/05/05 06:04:54;;;;;;;17.30;12.43;;;13.50;99.90;;;;;;4905969;29;20302;-77
2022/05/05 06:07:19;;;;;;;14.90;12.10;;;13.60;99.90;;;;;;4910980;29;20020;-77
2022/05/05 06:09:45;;;;;;;18.55;12.88;;;13.70;99.90;;;;;;4926046;29;20027;-78
2022/05/05 06:12:11;;;;;;;15.90;12.68;;;13.80;99.90;;;;;;4894322;29;20096;-77
2022/05/05 06:14:37;;;;;;;17.05;12.68;;;13.90;99.90;;;;;;4927507;29;20107;-78
2022/05/05 06:17:03;;;;;;;17.17;11.98;;;14.00;99.90;;;;;;4913341;29;20331;-76
2022/05/05 06:19:28;;;;;;;15.45;12.02;;;14.10;99.90;;;;;;4890922;29;20048;-78
2022/05/05 06:21:56;;;;;;;17.90;11.90;;;14.20;99.90;;;;;;4908156;29;20104;-77
2022/05/05 06:24:23;;;;;;;15.60;11.82;;;14.20;99.90;;;;;;4891862;29;20036;-77
2022/05/05 06:26:50;;;;;;;18.33;12.48;;;14.20;99.90;;;;;;4892159;29;20048;-78
2022/05/05 06:29:16;;;;;;;20.65;12.48;;;14.30;99.90;;;;;;4911922;29;20039;-78
2022/05/05 06:31:41;;;;;;;18.27;12.73;;;14.30;99.90;;;;;;4896833;29;20036;-77
2022/05/05 06:34:09;;;;;;;19.95;12.35;;;14.30;99.90;;;;;;4917952;29;20052;-76
2022/05/05 06:36:36;;;;;;;13.50;10.70;;;14.40;99.90;;;;;;4922863;29;20041;-78
2022/05/05 06:39:02;;;;;;;17.60;12.75;;;14.40;99.90;;;;;;4895177;29;20044;-76
2022/05/05 06:41:28;;;;;;;17.58;12.77;;;14.50;99.90;;;;;;4925867;29;20048;-78
2022/05/05 06:43:54;;;;;;;16.73;12.20;;;14.50;99.90;;;;;;4931813;29;20305;-78
2022/05/05 06:46:20;;;;;;;18.90;13.40;;;14.60;99.90;;;;;;4930773;29;20290;-79
2022/05/05 06:48:47;;;;;;;21.70;12.38;;;14.60;99.90;;;;;;4927584;29;20040;-77
2022/05/05 06:51:15;;;;;;;15.52;10.55;;;14.70;99.90;;;;;;4896819;29;20207;-78
2022/05/05 06:53:42;;;;;;;18.13;11.73;;;14.90;99.90;;;;;;4896820;29;20289;-79
2022/05/05 06:56:10;;;;;;;14.68;10.48;;;15.00;99.90;;;;;;4896146;29;20029;-78
2022/05/05 06:58:36;;;;;;;18.38;11.48;;;15.10;98.90;;;;;;4914981;29;20036;-78
2022/05/05 07:03:47;;;;;;;16.13;11.30;;;15.20;98.90;;;;;;4932345;29;20048;-77
2022/05/05 07:06:26;;;;;;;15.32;11.70;;;15.30;99.00;;;;;;4900762;29;20181;-78
2022/05/05 07:11:38;;;;;;;14.52;10.85;;;15.50;98.60;;;;;;4899072;29;20036;-78
2022/05/05 07:14:04;;;;;;;15.07;10.70;;;15.60;98.10;;;;;;4880124;29;20037;-76
2022/05/05 07:16:30;;;;;;;14.75;10.60;;;15.60;98.10;;;;;;4911798;29;20095;-76
2022/05/05 07:18:57;;;;;;;16.13;10.98;;;15.70;97.90;;;;;;4912537;29;20250;-76
2022/05/05 07:21:23;;;;;;;13.32;10.15;;;15.60;97.70;;;;;;4894792;29;20029;-78
2022/05/05 07:23:48;;;;;;;13.98;10.27;;;15.60;97.50;;;;;;4911498;29;20295;-77
2022/05/05 07:26:14;;;;;;;15.02;10.10;;;15.50;98.00;;;;;;4894339;29;20226;-77
2022/05/05 07:28:41;;;;;;;12.88;9.38;;;15.60;97.90;;;;;;4911048;29;20080;-77
2022/05/05 07:31:07;;;;;;;12.50;9.90;;;15.70;97.80;;;;;;4878112;29;20061;-77
2022/05/05 07:33:35;;;;;;;12.95;9.32;;;15.90;97.70;;;;;;4894251;29;20029;-78
2022/05/05 07:36:02;;;;;;;12.83;9.43;;;16.30;97.20;;;;;;4893827;29;20059;-78
2022/05/05 07:38:28;;;;;;;14.68;10.65;;;16.50;96.60;;;;;;4893559;29;20664;-76
2022/05/05 07:40:53;;;;;;;12.60;10.48;;;16.70;96.20;;;;;;4905281;29;20159;-77
2022/05/05 07:43:19;;;;;;;12.18;9.52;;;16.70;96.10;;;;;;4929808;29;20020;-77
2022/05/05 07:45:47;;;;;;;12.02;9.18;;;16.80;96.20;;;;;;4912930;29;20047;-77
2022/05/05 07:48:13;;;;;;;10.27;7.93;;;16.80;95.30;;;;;;4912340;29;20099;-77
2022/05/05 07:50:39;;;;;;;10.23;8.25;;;16.80;94.90;;;;;;4930233;29;20051;-77
2022/05/05 07:53:04;;;;;;;9.75;7.35;;;16.80;94.90;;;;;;4913231;29;20031;-77
2022/05/05 07:55:30;;;;;;;9.68;7.85;;;16.80;95.20;;;;;;4930346;29;20116;-76
2022/05/05 07:57:57;;;;;;;10.85;8.63;;;16.80;95.00;;;;;;4929897;29;20385;-77
2022/05/05 08:00:24;;;;;;;11.65;8.18;;;16.80;95.10;;;;;;4908900;29;20082;-77
2022/05/05 08:02:50;;;;;;;10.18;8.23;;;16.90;94.90;;;;;;4910461;29;20052;-77
2022/05/05 08:05:18;;;;;;;10.15;7.70;;;16.90;94.90;;;;;;4850458;29;20044;-78
2022/05/05 08:07:45;;;;;;;10.13;7.85;;;16.80;95.10;;;;;;4913835;29;20036;-77
2022/05/05 08:10:14;;;;;;;12.75;8.57;;;16.60;95.40;;;;;;4932487;29;20087;-77
2022/05/05 08:12:42;;;;;;;11.47;9.10;;;16.40;96.00;;;;;;4929406;29;20080;-77
2022/05/05 08:15:08;;;;;;;13.10;8.88;;;16.40;95.80;;;;;;4929834;29;20075;-78
2022/05/05 08:17:36;;;;;;;10.38;8.45;;;16.30;95.90;;;;;;4928853;29;20044;-77
2022/05/05 08:20:07;;;;;;;10.75;9.07;;;16.20;96.10;;;;;;4930234;29;20103;-77
2022/05/05 08:22:34;;;;;;;14.88;9.52;;;16.20;96.00;;;;;;4888193;29;20103;-77
2022/05/05 08:30:32;;;;;;;12.68;9.77;;;16.10;96.10;;;;;;4929613;29;20040;-78
2022/05/05 08:32:59;;;;;;;12.93;10.18;;;16.10;95.90;;;;;;4912589;29;20040;-78
2022/05/05 08:35:27;;;;;;;12.02;8.95;;;16.30;95.30;;;;;;4896265;29;20038;-77
2022/05/05 08:37:56;;;;;;;14.90;9.17;;;16.50;95.10;;;;;;4911862;29;20062;-77
2022/05/05 08:40:25;;;;;;;;;;;16.80;94.90;;;;;;4905011;29;20033;-77
2022/05/05 08:42:51;;;;;;;12.43;9.25;;;17.20;94.20;;;;;;4910442;29;19917;-78
2022/05/05 08:45:18;;;;;;;11.82;8.80;;;17.40;93.60;;;;;;4909560;29;20032;-78
2022/05/05 08:47:47;;;;;;;12.40;10.00;;;17.70;92.90;;;;;;4863156;29;20028;-77
2022/05/05 08:50:15;;;;;;;13.20;10.10;;;17.70;92.70;;;;;;4909993;29;20045;-77
2022/05/05 08:52:51;;;;;;;14.95;9.25;;;17.80;92.70;;;;;;4862354;29;20036;-77
2022/05/05 08:55:19;;;;;;;13.23;9.13;;;17.90;92.50;;;;;;4893322;29;20052;-77
2022/05/05 08:57:48;;;;;;;12.82;9.98;;;18.00;92.70;;;;;;4893176;29;20036;-77
2022/05/05 09:00:16;;;;;;;12.48;9.63;;;18.00;92.00;;;;;;4890853;29;20028;-78
2022/05/05 09:02:43;;;;;;;12.70;9.07;;;18.00;91.90;;;;;;4875091;29;20317;-78
2022/05/05 09:05:10;;;;;;;11.50;9.00;;;18.00;92.30;;;;;;4892710;29;20039;-77
2022/05/05 09:07:47;;;;;;;11.82;9.23;;;18.20;92.00;;;;;;4901279;29;20152;-78
2022/05/05 09:10:15;;;;;;;12.32;9.73;;;18.20;92.10;;;;;;4911332;29;20120;-76
2022/05/05 09:12:42;;;;;;;12.65;10.05;;;18.30;91.90;;;;;;4911453;29;20067;-77
2022/05/05 09:15:14;;;;;;;13.88;10.85;;;18.30;91.70;;;;;;4926536;29;20067;-77
2022/05/05 09:17:40;;;;;;;14.52;10.45;;;18.10;91.70;;;;;;4911117;29;20107;-78
2022/05/05 09:20:06;;;;;;;12.15;10.88;;;17.90;92.10;;;;;;4894139;29;20123;-78
2022/05/05 09:22:33;;;;;;;12.48;10.98;;;17.60;92.70;;;;;;4927198;29;20381;-76
2022/05/05 09:25:01;;;;;;;14.20;11.55;;;17.40;93.20;;;;;;4928028;29;20044;-76
2022/05/05 09:27:34;;;;;;;14.45;12.57;;;17.30;92.80;;;;;;4927371;29;20040;-76
2022/05/05 09:30:18;;;;;;;13.98;12.13;;;17.10;92.90;;;;;;4911103;29;20115;-77
2022/05/05 09:32:46;;;;;;;15.25;12.85;;;17.00;93.40;;;;;;4870273;29;20040;-77
2022/05/05 09:35:17;;;;;;;14.80;11.65;;;16.90;93.30;;;;;;4876556;29;20123;-77
2022/05/05 09:37:45;;;;;;;16.15;11.38;;;16.90;93.60;;;;;;4907938;29;20104;-77
2022/05/05 09:40:18;;;;;;;16.70;12.43;;;16.90;93.60;;;;;;4889505;29;20364;-76
2022/05/05 09:42:55;;;;;;;13.10;11.50;;;16.90;93.30;;;;;;4907355;29;20037;-76
2022/05/05 09:45:29;;;;;;;16.60;12.57;;;16.80;93.40;;;;;;4880590;29;20032;-77
2022/05/05 09:47:58;;;;;;;15.07;12.77;;;16.80;93.30;;;;;;4888046;29;20032;-77
2022/05/05 09:50:28;;;;;;;18.67;13.55;;;16.80;93.20;;;;;;4888244;29;20099;-77
2022/05/05 09:58:38;;;;;;;17.52;11.55;;;17.20;92.30;;;;;;4901337;29;20111;-77
2022/05/05 10:01:13;;;;;;;16.85;11.85;;;17.30;91.00;;;;;;4904380;29;20047;-78
2022/05/05 10:04:01;;;;;;;15.85;11.80;;;17.30;90.80;;;;;;4884295;29;20057;-78
2022/05/05 10:06:54;;;;;;;16.48;12.10;;;17.40;90.90;;;;;;4884210;29;20084;-79
2022/05/05 10:09:20;;;;;;;15.50;11.38;;;17.70;90.60;;;;;;4884372;29;20043;-78
2022/05/05 10:11:49;;;;;;;15.25;11.25;;;17.90;90.30;;;;;;4884632;29;20036;-78
2022/05/05 10:14:33;;;;;;;16.30;10.57;;;17.90;90.10;;;;;;4885686;29;20048;-78
2022/05/05 10:16:59;;;;;;;14.98;11.10;;;18.20;90.30;;;;;;4884374;29;20068;-79
2022/05/05 10:19:25;;;;;;;14.15;10.85;;;18.60;90.00;;;;;;4882942;29;20234;-80
2022/05/05 10:25:55;;;;;;;15.73;10.70;;;18.90;90.00;;;;;;4847442;29;20316;-79
2022/05/05 10:28:57;;;;;;;16.25;11.75;;;19.10;88.80;;;;;;4847566;29;20050;-80
2022/05/05 10:32:00;;;;;;;16.55;10.80;;;19.00;89.10;;;;;;4831394;29;20065;-79
2022/05/05 10:34:26;;;;;;;13.85;11.27;;;19.30;89.70;;;;;;4847230;29;20109;-79
2022/05/05 10:37:01;;;;;;;13.35;10.73;;;19.50;88.00;;;;;;4847265;29;20059;-80
2022/05/05 10:39:41;;;;;;;19.75;12.93;;;19.60;87.50;;;;;;4847120;29;20212;-79
2022/05/05 10:42:42;;;;;;;16.45;13.82;;;19.50;87.30;;;;;;4847588;29;20030;-79
2022/05/05 10:45:13;;;;;;;17.80;12.40;;;19.20;87.40;;;;;;4846497;29;20146;-79
2022/05/05 10:48:06;;;;;;;16.67;14.40;;;19.30;88.50;;;;;;4847376;29;20089;-79
2022/05/05 10:53:55;;;;;;;16.20;13.20;;;19.40;88.30;;;;;;4846630;29;20299;-77
2022/05/05 10:56:29;;;;;;;14.95;13.35;;;19.10;88.90;;;;;;4846296;29;20070;-79
2022/05/05 10:59:07;;;;;;;14.88;12.43;;;19.10;89.90;;;;;;4862077;29;20328;-79
2022/05/05 11:12:51;;;;;;;16.75;14.15;;;18.60;91.10;;;;;;4886112;29;20040;-79
2022/05/05 11:23:49;;;;;;;20.15;15.65;;;18.10;92.70;;;;;;4878210;29;20034;-79
2022/05/05 11:26:21;;;;;;;18.73;14.02;;;18.10;92.60;;;;;;4854254;29;20284;-80
2022/05/05 11:28:47;;;;;;;;;;;18.20;92.80;;;;;;4871635;29;20116;-79
2022/05/05 11:35:11;;;;;;;17.23;13.40;;;18.10;93.60;;;;;;4872682;29;20020;-79
2022/05/05 11:41:45;;;;;;;23.83;14.90;;;17.70;94.00;;;;;;4901845;29;20012;-78
2022/05/05 11:51:34;;;;;;;21.15;15.40;;;17.40;95.40;;;;;;4888913;29;20043;-80
2022/05/05 11:57:50;;;;;;;18.73;16.35;;;17.90;95.30;;;;;;4870430;29;20341;-78
2022/05/05 12:03:00;;;;;;;20.20;15.88;;;18.20;95.10;;;;;;4885680;29;19979;-80
2022/05/05 12:05:28;;;;;;;20.90;17.30;;;18.00;94.60;;;;;;4890804;29;20033;-79
2022/05/05 12:07:55;;;;;;;24.08;17.90;;;17.90;95.40;;;;;;4891098;29;20037;-79
2022/05/05 12:10:24;;;;;;;21.00;17.70;;;17.80;94.70;;;;;;4889699;29;20350;-79
2022/05/05 12:12:52;;;;;;;22.23;17.83;;;17.60;94.60;;;;;;4907896;29;20044;-78
2022/05/05 12:25:45;;;;;;;23.23;18.48;;;17.50;95.10;;;;;;5715562;23;20282;-80
2022/05/05 12:28:11;;;;;;;21.40;17.60;;;17.70;94.80;;;;;;4906754;29;20096;-80
2022/05/05 12:35:11;;;;;;;21.67;18.13;;;18.40;93.10;;;;;;4923853;29;20199;-79
2022/05/05 12:37:37;;;;;;;23.50;17.90;;;18.40;92.30;;;;;;4924625;29;20055;-79
2022/05/05 12:40:05;;;;;;;24.92;19.27;;;18.40;92.80;;;;;;4924234;29;20171;-80
2022/05/05 12:46:19;;;;;;;;;;;18.00;93.50;;;;;;4908109;29;20269;-80
2022/05/05 12:48:51;;;;;;;27.13;20.33;;;18.00;93.90;;;;;;4914569;29;19951;-80
2022/05/05 12:51:17;;;;;;;26.38;20.05;;;18.30;93.90;;;;;;4920832;29;20107;-79
2022/05/05 13:01:57;;;;;;;25.88;18.20;;;19.90;90.30;;;;;;4915541;29;20044;-80
2022/05/05 13:04:24;;;;;;;21.40;17.90;;;20.00;90.30;;;;;;4906569;29;20041;-79
2022/05/05 13:06:51;;;;;;;25.05;18.80;;;20.10;90.00;;;;;;4887950;29;20081;-80
2022/05/05 13:09:17;;;;;;;22.38;17.70;;;20.20;90.20;;;;;;4907360;29;20029;-80
2022/05/05 13:11:44;;;;;;;24.20;18.05;;;20.00;90.30;;;;;;4889825;29;20029;-78
2022/05/05 13:14:35;;;;;;;21.57;18.00;;;20.10;90.40;;;;;;4889651;29;20040;-80
2022/05/05 13:20:48;;;;;;;21.45;17.13;;;20.00;90.10;;;;;;4892168;29;20417;-78
2022/05/05 13:23:13;;;;;;;21.02;16.58;;;20.40;90.20;;;;;;4872924;29;20077;-80
2022/05/05 13:25:39;;;;;;;18.88;16.05;;;20.90;89.40;;;;;;4888080;29;20079;-81
2022/05/05 13:28:39;;;;;;;19.40;15.55;;;21.70;86.30;;;;;;4905707;29;20040;-79
2022/05/05 13:31:05;;;;;;;18.50;15.38;;;22.80;82.00;;;;;;4904678;29;20037;-82
2022/05/05 13:33:34;;;;;;;16.58;14.73;;;24.10;77.30;;;;;;4904318;29;20141;-79
2022/05/05 13:36:10;;;;;;;17.88;15.07;;;24.20;77.40;;;;;;4905698;29;20035;-80
2022/05/05 13:38:44;;;;;;;18.33;15.50;;;24.50;75.70;;;;;;4905607;29;20067;-78
2022/05/05 13:41:10;;;;;;;18.52;15.32;;;24.90;74.80;;;;;;4897059;29;20083;-81
2022/05/05 13:43:36;;;;;;;16.38;14.30;;;25.30;74.20;;;;;;4905893;29;20048;-81
2022/05/05 13:46:03;;;;;;;17.77;14.85;;;25.80;73.80;;;;;;4889391;29;20033;-80
2022/05/05 13:48:29;;;;;;;18.05;14.38;;;26.60;72.70;;;;;;4894322;29;20335;-83
2022/05/05 13:50:55;;;;;;;15.18;13.32;;;27.40;69.60;;;;;;4873395;29;20148;-82
2022/05/05 13:53:20;;;;;;;17.40;14.38;;;27.80;68.70;;;;;;4888875;29;20040;-81
2022/05/05 13:56:13;;;;;;;16.98;14.13;;;27.60;67.70;;;;;;4889454;29;20032;-83
2022/05/05 13:59:13;;;;;;;15.25;13.63;;;27.30;67.10;;;;;;4889216;29;20044;-81
2022/05/05 14:02:06;;;;;;;15.77;14.13;;;28.00;66.40;;;;;;4854236;29;20085;-81
2022/05/05 14:04:32;;;;;;;16.75;14.93;;;27.90;65.40;;;;;;4870536;29;20061;-80
2022/05/05 14:07:07;;;;;;;14.68;12.07;;;27.10;67.60;;;;;;4887345;29;20032;-80
2022/05/05 14:12:18;;;;;;;15.88;14.23;;;26.20;71.00;;;;;;4869596;29;20041;-79
2022/05/05 14:14:45;;;;;;;15.15;13.57;;;27.00;69.40;;;;;;4870831;29;20037;-80
2022/05/05 14:17:49;;;;;;;16.02;14.07;;;27.40;68.10;;;;;;4879184;29;20104;-79
2022/05/05 14:20:15;;;;;;;17.63;13.98;;;28.10;67.00;;;;;;4895147;29;20321;-79
2022/05/05 14:22:50;;;;;;;15.10;12.38;;;28.70;65.40;;;;;;4910934;29;20056;-81
2022/05/05 14:25:19;;;;;;;14.85;12.70;;;28.80;65.40;;;;;;4888717;29;20047;-79
2022/05/05 14:27:46;;;;;;;15.88;14.18;;;28.30;66.00;;;;;;4905726;29;20051;-79
2022/05/05 14:30:13;;;;;;;16.48;13.45;;;27.10;67.20;;;;;;4887640;29;20032;-78
2022/05/05 14:32:39;;;;;;;15.48;12.48;;;26.00;69.00;;;;;;4904755;29;20069;-78
2022/05/05 14:35:05;;;;;;;16.48;13.70;;;25.40;71.70;;;;;;4881654;29;20152;-80
2022/05/05 14:37:40;;;;;;;16.58;13.45;;;25.30;71.50;;;;;;4898325;29;20183;-80
2022/05/05 14:40:26;;;;;;;15.13;13.18;;;25.70;71.20;;;;;;4894834;29;20039;-79
2022/05/05 14:43:10;;;;;;;17.58;15.27;;;25.50;70.30;;;;;;4908505;29;20021;-79
2022/05/05 14:45:37;;;;;;;16.13;14.20;;;24.90;71.60;;;;;;4886690;29;20032;-80
2022/05/05 14:48:05;;;;;;;17.60;15.15;;;24.20;73.20;;;;;;4888082;29;20047;-79
2022/05/05 14:50:30;;;;;;;15.45;12.80;;;23.80;75.80;;;;;;4907767;29;20276;-78
2022/05/05 14:52:56;;;;;;;16.60;13.63;;;24.20;74.80;;;;;;4891279;29;20033;-78
2022/05/05 14:55:23;;;;;;;18.52;15.30;;;24.30;73.90;;;;;;4876646;29;20322;-77
2022/05/05 14:58:21;;;;;;;17.83;15.57;;;23.70;74.20;;;;;;4906821;29;20040;-78
2022/05/05 15:00:52;;;;;;;;;;;23.30;75.80;;;;;;4874017;29;20071;-77
2022/05/05 15:03:18;;;;;;;;;;;23.20;75.70;;;;;;4893101;29;19907;-78
2022/05/05 15:09:07;;;;;;;;;;;24.00;75.50;;;;;;4896501;29;19908;-79
2022/05/05 15:11:35;;;;;;;;;;;25.50;70.70;;;;;;4880347;29;20193;-79
2022/05/05 15:14:02;;;;;;;;;;;26.00;69.40;;;;;;4910058;29;19999;-79
2022/05/05 15:16:27;;;;;;;;;;;25.80;69.50;;;;;;4908356;29;19915;-80
2022/05/05 15:18:56;;;;;;;;;;;25.10;70.70;;;;;;4891924;29;20139;-78
2022/05/05 15:21:24;;;;;;;;;;;24.10;72.80;;;;;;4907644;29;19915;-80
2022/05/05 15:23:52;;;;;;;;;;;23.50;74.70;;;;;;4891004;29;19911;-79
2022/05/05 15:26:18;;;;;;;;;;;23.00;76.60;;;;;;4908044;29;19959;-79
2022/05/05 15:28:46;;;;;;;;;;;22.70;77.00;;;;;;4864162;29;19912;-79
2022/05/05 15:31:11;;;;;;;;;;;22.30;78.00;;;;;;4890167;29;19918;-79
2022/05/05 15:33:37;;;;;;;;;;;23.30;76.20;;;;;;4890655;29;19908;-79
2022/05/05 15:36:09;;;;;;;;;;;25.00;73.60;;;;;;4886095;29;19959;-78
2022/05/05 15:38:37;;;;;;;;;;;26.60;68.90;;;;;;4897397;29;20072;-81
2022/05/05 15:41:04;;;;;;;;;;;26.70;68.00;;;;;;4895788;29;19947;-79
2022/05/05 15:43:33;;;;;;;;;;;27.00;68.00;;;;;;4873139;29;19926;-80
2022/05/05 15:45:58;;;;;;;;;;;26.70;68.10;;;;;;4872593;29;19911;-79
2022/05/05 15:48:27;;;;;;;;;;;27.30;68.50;;;;;;4897025;29;19920;-79
2022/05/05 15:51:12;;;;;;;;;;;27.90;66.40;;;;;;4891454;29;19911;-79
2022/05/05 15:53:50;;;;;;;;;;;27.90;66.10;;;;;;4888733;29;19923;-78
2022/05/05 15:56:15;;;;;;;;;;;27.10;67.20;;;;;;4874642;29;19923;-79
2022/05/05 15:58:41;;;;;;;;;;;26.20;68.20;;;;;;4891596;29;19912;-79
2022/05/05 16:01:38;;;;;;;;;;;26.70;68.00;;;;;;4897003;29;19974;-80
2022/05/05 16:04:14;;;;;;;;;;;26.40;68.60;;;;;;4857933;29;20703;-79
2022/05/05 16:06:52;;;;;;;;;;;27.00;67.40;;;;;;4861781;29;19919;-81
2022/05/05 16:09:17;;;;;;;;;;;26.70;67.30;;;;;;4866674;29;19912;-81
2022/05/05 16:11:43;;;;;;;;;;;26.50;68.00;;;;;;4886067;29;20244;-79
2022/05/05 16:14:09;;;;;;;;;;;26.80;68.60;;;;;;4904595;29;19911;-79
2022/05/05 16:16:34;;;;;;;;;;;26.50;68.10;;;;;;4849928;29;19912;-80
2022/05/05 16:19:00;;;;;;;;;;;25.30;70.40;;;;;;4880128;29;20295;-79
2022/05/05 16:21:26;;;;;;;;;;;24.00;73.80;;;;;;4898293;29;19922;-78
2022/05/05 16:23:52;;;;;;;;;;;22.90;76.50;;;;;;4857340;29;19912;-79
2022/05/05 16:31:46;;;;;;;;;;;20.90;83.70;;;;;;4876918;29;19919;-78
2022/05/05 16:34:12;;;;;;;;;;;20.50;84.40;;;;;;4890567;29;19917;-79
2022/05/05 16:36:40;;;;;;;;;;;20.20;85.50;;;;;;4856247;29;20058;-79
2022/05/05 16:39:12;;;;;;;;;;;20.10;86.30;;;;;;4883763;29;19911;-81
2022/05/05 16:41:37;;;;;;;;;;;20.10;85.80;;;;;;4875048;29;19920;-79
2022/05/05 16:44:03;;;;;;;;;;;19.90;87.00;;;;;;4882944;29;19923;-79
2022/05/05 16:46:29;;;;;;;;;;;19.60;87.40;;;;;;4876639;29;19951;-78
2022/05/05 16:48:55;;;;;;;;;;;19.20;88.70;;;;;;4851313;29;19911;-79
2022/05/05 16:51:22;;;;;;;;;;;18.90;90.00;;;;;;4844119;29;19908;-78
2022/05/05 16:53:47;;;;;;;;;;;18.70;90.40;;;;;;4835850;29;19947;-78
2022/05/05 16:56:13;;;;;;;;;;;18.50;90.70;;;;;;4844960;29;20075;-76
2022/05/05 16:58:40;;;;;;;;;;;18.40;90.90;;;;;;4861535;29;20157;-78
2022/05/05 17:01:09;;;;;;;;;;;18.20;91.10;;;;;;4859994;29;20045;-78
2022/05/05 17:03:34;;;;;;;;;;;18.10;91.20;;;;;;4842841;29;19912;-79
2022/05/05 17:06:00;;;;;;;;;;;17.90;91.50;;;;;;4875479;29;20028;-78
2022/05/05 17:08:27;;;;;;;;;;;17.70;92.00;;;;;;4878311;29;19919;-78
2022/05/05 17:10:53;;;;;;;;;;;17.50;92.30;;;;;;4874963;29;19982;-78
2022/05/05 17:13:19;;;;;;;;;;;17.40;92.40;;;;;;4876044;29;19934;-78
2022/05/05 17:15:44;;;;;;;;;;;17.40;92.40;;;;;;4878542;29;20216;-79
2022/05/05 17:18:10;;;;;;;;;;;17.20;92.60;;;;;;4876602;29;19915;-80
2022/05/05 17:20:36;;;;;;;;;;;17.10;92.60;;;;;;4879889;29;20024;-80
2022/05/05 17:23:02;;;;;;;;;;;16.90;93.00;;;;;;4852189;29;19919;-78
2022/05/05 17:25:28;;;;;;;;;;;16.80;93.30;;;;;;4865729;29;19957;-79
2022/05/05 17:27:55;;;;;;;;;;;16.70;93.60;;;;;;4856765;29;19942;-80
2022/05/05 17:30:35;;;;;;;;;;;16.70;93.50;;;;;;4841663;29;19911;-79
2022/05/05 17:33:21;;;;;;;;;;;16.70;93.50;;;;;;4870311;29;19980;-79
2022/05/05 17:35:47;;;;;;;;;;;16.50;93.80;;;;;;4865820;29;20160;-79
2022/05/05 17:38:13;;;;;;;;;;;16.50;94.00;;;;;;4860095;29;19983;-78
2022/05/05 17:40:39;;;;;;;;;;;16.40;94.20;;;;;;4855490;29;19912;-78
2022/05/05 17:43:05;;;;;;;;;;;16.40;94.30;;;;;;4848727;29;20052;-78
2022/05/05 17:51:28;;;;;;;;;;;16.30;94.50;;;;;;4866709;29;19912;-80
2022/05/05 17:54:20;;;;;;;;;;;16.20;94.70;;;;;;4885578;29;19994;-79
2022/05/05 17:56:46;;;;;;;;;;;16.10;94.80;;;;;;4904102;29;19935;-81
2022/05/05 17:59:15;;;;;;;;;;;16.10;94.80;;;;;;4900319;29;19938;-79
2022/05/05 18:01:47;;;;;;;;;;;16.00;95.00;;;;;;4883301;29;19911;-80
2022/05/05 18:04:12;;;;;;;;;;;15.90;95.10;;;;;;4898563;29;19939;-80
2022/05/05 18:06:38;;;;;;;;;;;15.80;95.40;;;;;;4899068;29;20168;-78
2022/05/05 18:09:04;;;;;;;;;;;15.80;95.40;;;;;;4866307;29;19982;-78
2022/05/05 18:11:30;;;;;;;;;;;15.60;95.50;;;;;;4888762;29;20099;-79
2022/05/05 18:13:58;;;;;;;;;;;15.60;95.80;;;;;;4873593;29;19907;-80
2022/05/05 18:16:23;;;;;;;;;;;15.40;95.90;;;;;;4877652;29;19986;-79
2022/05/05 18:18:50;;;;;;;;;;;15.30;96.10;;;;;;4884248;29;20239;-79
2022/05/05 18:21:16;;;;;;;;;;;15.20;96.30;;;;;;4886670;29;19922;-80
2022/05/05 18:23:42;;;;;;;;;;;15.10;96.40;;;;;;4890524;29;19911;-79
2022/05/05 18:26:11;;;;;;;;;;;15.10;96.60;;;;;;4885345;29;19926;-77
2022/05/05 18:28:39;;;;;;;;;;;15.00;96.70;;;;;;4891045;29;19975;-80
2022/05/05 18:31:05;;;;;;;;;;;14.90;96.90;;;;;;4880261;29;19911;-78
2022/05/05 18:33:31;;;;;;;;;;;14.80;97.10;;;;;;4839592;29;19912;-79
2022/05/05 18:35:58;;;;;;;;;;;14.90;97.10;;;;;;4857756;29;19923;-79
2022/05/05 18:38:23;;;;;;;;;;;14.90;97.00;;;;;;4886201;29;20081;-81
2022/05/05 18:40:49;;;;;;;;;;;14.80;97.00;;;;;;4871962;29;19907;-79
2022/05/05 18:43:15;;;;;;;;;;;14.80;97.20;;;;;;4865770;29;19912;-80
2022/05/05 18:45:43;;;;;;;;;;;14.80;97.30;;;;;;4883189;29;19912;-80
2022/05/05 18:48:09;;;;;;;;;;;14.70;97.30;;;;;;4864644;29;19912;-79
2022/05/05 18:50:35;;;;;;;;;;;14.70;97.30;;;;;;4853617;29;20003;-79
2022/05/05 18:53:02;;;;;;;;;;;14.70;97.40;;;;;;4863429;29;19924;-78
2022/05/05 18:55:28;;;;;;;;;;;14.70;97.40;;;;;;4864721;29;19956;-79
2022/05/05 18:57:54;;;;;;;;;;;14.60;97.40;;;;;;4882613;29;19916;-80
2022/05/05 19:00:20;;;;;;;;;;;14.60;97.40;;;;;;4844028;29;19953;-80
2022/05/05 19:02:49;;;;;;;;;;;14.60;97.40;;;;;;4825454;29;19923;-78
2022/05/05 19:05:14;;;;;;;;;;;14.60;97.40;;;;;;4850076;29;19919;-81
2022/05/05 19:07:40;;;;;;;;;;;14.60;97.30;;;;;;4869018;29;19935;-79
2022/05/05 19:10:06;;;;;;;;;;;14.60;97.30;;;;;;4856938;29;19954;-79
2022/05/05 19:12:32;;;;;;;;;;;14.50;97.30;;;;;;4882775;29;19986;-80
2022/05/05 19:14:58;;;;;;;;;;;14.50;97.30;;;;;;4873142;29;19908;-79
2022/05/05 19:17:24;;;;;;;;;;;14.40;97.50;;;;;;4875346;29;19984;-80
2022/05/05 19:20:10;;;;;;;;;;;14.40;97.60;;;;;;4873386;29;19915;-79
2022/05/05 19:26:24;;;;;;;;;;;14.40;97.40;;;;;;4864766;29;19939;-77
2022/05/05 19:28:53;;;;;;;;;;;14.40;97.40;;;;;;4883657;29;19918;-79
2022/05/05 19:31:19;;;;;;;;;;;14.30;97.50;;;;;;4867271;29;19912;-80
2022/05/05 19:33:45;;;;;;;;;;;14.30;97.40;;;;;;4877902;29;19920;-86
2022/05/05 19:36:11;;;;;;;;;;;14.30;97.30;;;;;;4893607;29;20153;-79
2022/05/05 19:38:36;;;;;;;;;;;14.30;97.30;;;;;;4851968;29;19915;-79
2022/05/05 19:41:02;;;;;;;;;;;14.20;97.40;;;;;;4900941;29;20018;-79
2022/05/05 19:43:28;;;;;;;;;;;14.20;97.40;;;;;;4890308;29;19946;-79
2022/05/05 19:45:54;;;;;;;;;;;14.10;97.50;;;;;;4906757;29;19963;-78
2022/05/05 19:48:20;;;;;;;;;;;14.20;97.40;;;;;;4905956;29;19959;-79
2022/05/05 19:50:46;;;;;;;;;;;14.10;97.50;;;;;;4905208;29;19934;-80
2022/05/05 19:53:11;;;;;;;;;;;14.10;97.50;;;;;;4837866;29;20079;-78
2022/05/05 20:01:17;;;;;;;;;;;14.10;97.70;;;;;;4908079;29;19915;-80
2022/05/05 20:03:47;;;;;;;;;;;14.20;97.70;;;;;;4864005;29;19911;-77
2022/05/05 20:09:04;;;;;;;;;;;14.20;97.30;;;;;;4887019;29;19911;-80
2022/05/05 20:11:31;;;;;;;;;;;14.20;97.60;;;;;;4873999;29;19970;-78
2022/05/05 20:14:01;;;;;;;;;;;14.10;97.60;;;;;;4898589;29;20698;-79
2022/05/05 20:16:26;;;;;;;;;;;14.20;97.70;;;;;;4885981;29;20212;-79
2022/05/05 20:18:52;;;;;;;;;;;14.10;97.80;;;;;;4876751;29;19930;-80
2022/05/05 20:21:18;;;;;;;;;;;14.10;97.80;;;;;;4883116;29;19912;-79
2022/05/05 20:23:44;;;;;;;;;;;14.20;97.80;;;;;;4884169;29;19978;-79
2022/05/05 20:26:11;;;;;;;;;;;14.10;97.80;;;;;;4868330;29;19915;-78
2022/05/05 20:28:36;;;;;;;;;;;14.20;97.80;;;;;;4911196;29;19918;-78